Simmons, Missouri
Current Conditions -  °F | °C
As of 4:53 PM on Tuesday 27 Jan 2015 (Local Time) from KUNO Reporting Station
Clear Clear  
Wind Chill: 56°   Ceiling: Unl
Heat Index: 56°   Visibility: 10mi
Dew Point: 28°   Wind: 3mph
Humidity: 34%   Direction: 50°NE
Pressure: 30.12"   Gusts: NA
Location:  37.3091°N, 91.9516°W
Report Text: KUNO 272253Z AUTO 05003KT 10SM CLR 13/M02 A3012 RMK AO2 SLP201 T01331022
Loading
Personal Weather Stations






























Interactive Weather Map New forecast layout! Learn more

10-Day Weather Forecast

Advertisements
Track Severe Weather on mobile